Helvetia, Oregon
Current Conditions -  °F | °C
As of 12:53 AM on Sunday 23 Nov 2014 (Local Time) from KHIO Reporting Station
Light Rain Light Rain  
Wind Chill: 44°   Ceiling: 4200
Heat Index: 44°   Visibility: 6mi
Dew Point: 40°   Wind: 3mph
Humidity: 85%   Direction: 60°ENE
Pressure: 30.26"   Gusts: NA
Location:  45.6165°N, 122.954°W
Report Text: KHIO 230853Z AUTO 06003KT 6SM -RA BR SCT016 BKN042 OVC070 07/04 A3026 RMK AO2 RAB00E14B44 SLP247 P0000 60000 T00670044 51019
Loading
Personal Weather Stations






























Interactive Weather Map New forecast layout! Learn more

10-Day Weather Forecast

Advertisements
Track Severe Weather on mobile